createdAt,value
2023-04-15T00:01:37.253Z,13.46
2023-04-15T00:04:04.749Z,13.45
2023-04-15T00:06:31.781Z,13.45
2023-04-15T00:08:58.615Z,13.40
2023-04-15T00:11:25.947Z,13.48
2023-04-15T00:13:52.719Z,13.35
2023-04-15T00:16:19.438Z,13.34
2023-04-15T00:18:46.323Z,13.24
2023-04-15T00:21:13.209Z,13.19
2023-04-15T00:23:39.872Z,13.14
2023-04-15T00:26:07.376Z,13.11
2023-04-15T00:28:34.148Z,13.07
2023-04-15T00:31:00.885Z,12.96
2023-04-15T00:33:27.594Z,12.86
2023-04-15T00:35:54.330Z,12.64
2023-04-15T00:38:21.046Z,12.55
2023-04-15T00:40:48.107Z,12.50
2023-04-15T00:43:17.590Z,12.41
2023-04-15T00:45:44.584Z,12.29
2023-04-15T00:48:12.134Z,12.28
2023-04-15T00:50:39.216Z,12.31
2023-04-15T00:53:06.112Z,12.43
2023-04-15T00:55:32.930Z,12.66
2023-04-15T00:57:59.847Z,12.74
2023-04-15T01:00:27.007Z,12.76
2023-04-15T01:02:53.871Z,12.73
2023-04-15T01:05:20.722Z,12.74
2023-04-15T01:07:48.758Z,12.65
2023-04-15T01:10:15.719Z,12.60
2023-04-15T01:12:43.253Z,12.45
2023-04-15T01:15:11.076Z,12.36
2023-04-15T01:17:38.588Z,12.16
2023-04-15T01:20:10.141Z,12.08
2023-04-15T01:22:38.343Z,12.16
2023-04-15T01:25:13.114Z,12.31
2023-04-15T01:27:42.290Z,12.39
2023-04-15T01:30:10.539Z,12.41
2023-04-15T01:32:37.812Z,12.47
2023-04-15T01:35:24.008Z,12.50
2023-04-15T01:37:51.627Z,12.48
2023-04-15T01:40:18.464Z,12.47
2023-04-15T01:42:46.670Z,12.44
2023-04-15T01:45:17.455Z,12.09
2023-04-15T01:47:45.650Z,12.01
2023-04-15T01:50:13.988Z,12.10
2023-04-15T01:52:42.381Z,12.01
2023-04-15T01:55:14.064Z,12.13
2023-04-15T01:57:42.364Z,12.24
2023-04-15T02:00:11.590Z,12.26
2023-04-15T02:02:43.636Z,12.36
2023-04-15T02:05:11.742Z,12.35
2023-04-15T02:07:39.620Z,12.46
2023-04-15T02:10:07.882Z,12.46
2023-04-15T02:12:36.822Z,12.45
2023-04-15T02:15:05.692Z,12.28
2023-04-15T02:17:37.635Z,12.22
2023-04-15T02:20:06.323Z,12.23
2023-04-15T02:22:34.846Z,12.49
2023-04-15T02:25:02.855Z,12.54
2023-04-15T02:27:33.196Z,12.50
2023-04-15T02:30:01.212Z,12.31
2023-04-15T02:32:29.399Z,12.24
2023-04-15T02:35:02.012Z,12.32
2023-04-15T02:37:31.743Z,12.25
2023-04-15T02:40:00.944Z,12.09
2023-04-15T02:42:30.336Z,11.98
2023-04-15T02:45:01.704Z,11.77
2023-04-15T02:47:34.863Z,11.70
2023-04-15T02:50:08.138Z,11.80
2023-04-15T02:52:36.237Z,11.72
2023-04-15T02:55:05.199Z,11.87
2023-04-15T02:57:33.357Z,11.94
2023-04-15T03:00:09.507Z,11.91
2023-04-15T03:02:40.265Z,11.89
2023-04-15T03:05:12.674Z,11.82
2023-04-15T03:07:43.031Z,11.77
2023-04-15T03:10:12.096Z,11.76
2023-04-15T03:12:40.904Z,11.73
2023-04-15T03:15:11.800Z,11.78
2023-04-15T03:17:44.622Z,11.85
2023-04-15T03:20:12.841Z,11.81
2023-04-15T03:22:40.854Z,11.89
2023-04-15T03:25:09.783Z,11.98
2023-04-15T03:27:38.765Z,12.04
2023-04-15T03:30:07.890Z,12.03
2023-04-15T03:32:38.889Z,11.98
2023-04-15T03:35:08.552Z,11.96
2023-04-15T03:37:36.778Z,11.89
2023-04-15T03:40:05.583Z,11.85
2023-04-15T03:42:33.541Z,11.80
2023-04-15T03:45:01.598Z,11.68
2023-04-15T03:47:29.861Z,11.69
2023-04-15T03:49:57.801Z,11.75
2023-04-15T03:52:26.057Z,11.83
2023-04-15T03:54:54.046Z,11.92
2023-04-15T03:57:21.950Z,12.05
2023-04-15T03:59:49.876Z,12.09
2023-04-15T04:02:17.994Z,12.13
2023-04-15T04:04:46.386Z,12.15
2023-04-15T04:07:18.243Z,12.17
2023-04-15T04:09:47.397Z,12.18
2023-04-15T04:12:15.653Z,12.09
2023-04-15T04:14:43.763Z,11.82
2023-04-15T04:17:11.788Z,11.74
2023-04-15T04:19:39.918Z,11.74
2023-04-15T04:22:07.874Z,11.73
2023-04-15T04:24:35.950Z,11.69
2023-04-15T04:27:03.952Z,11.66
2023-04-15T04:29:31.954Z,11.76
2023-04-15T04:31:59.923Z,11.84
2023-04-15T04:34:27.979Z,11.78
2023-04-15T04:36:56.004Z,11.82
2023-04-15T04:39:23.990Z,11.69
2023-04-15T04:41:54.588Z,11.66
2023-04-15T04:44:22.526Z,11.64
2023-04-15T04:46:50.617Z,11.76
2023-04-15T04:49:18.577Z,11.74
2023-04-15T04:51:48.468Z,11.76
2023-04-15T04:54:16.957Z,11.80
2023-04-15T04:56:44.941Z,11.85
2023-04-15T04:59:13.098Z,11.85
2023-04-15T05:01:41.197Z,11.87
2023-04-15T05:04:09.461Z,11.80
2023-04-15T05:06:37.655Z,11.88
2023-04-15T05:09:05.932Z,12.02
2023-04-15T05:11:33.942Z,12.14
2023-04-15T05:14:02.430Z,12.18
2023-04-15T05:16:30.459Z,12.22
2023-04-15T05:18:58.477Z,12.34
2023-04-15T05:21:27.693Z,12.44
2023-04-15T05:23:55.994Z,12.51
2023-04-15T05:26:26.493Z,12.43
2023-04-15T05:28:55.048Z,12.53
2023-04-15T05:31:23.019Z,12.57
2023-04-15T05:33:51.348Z,12.63
2023-04-15T05:36:19.324Z,12.58
2023-04-15T05:38:47.404Z,12.50
2023-04-15T05:41:17.775Z,12.34
2023-04-15T05:43:47.748Z,12.22
2023-04-15T05:46:16.499Z,12.29
2023-04-15T05:48:44.499Z,12.33
2023-04-15T05:51:12.591Z,12.24
2023-04-15T05:53:41.669Z,12.24
2023-04-15T05:56:09.758Z,11.88
2023-04-15T05:58:38.336Z,12.08
2023-04-15T06:01:06.458Z,12.30
2023-04-15T06:03:34.537Z,12.36
2023-04-15T06:06:02.620Z,12.56
2023-04-15T06:08:30.769Z,12.43
2023-04-15T06:10:59.113Z,12.36
2023-04-15T06:13:27.137Z,12.81
2023-04-15T06:15:55.395Z,13.19
2023-04-15T06:18:23.382Z,13.45
2023-04-15T06:20:51.652Z,13.51
2023-04-15T06:23:19.552Z,13.40
2023-04-15T06:25:47.460Z,13.66
2023-04-15T06:28:15.608Z,13.91
2023-04-15T06:30:43.569Z,14.09
2023-04-15T06:33:11.613Z,14.30
2023-04-15T06:35:40.092Z,14.95
2023-04-15T06:38:08.069Z,15.50
2023-04-15T06:40:36.047Z,16.13
2023-04-15T06:43:04.919Z,16.76
2023-04-15T06:45:33.160Z,18.28
2023-04-15T06:48:01.271Z,19.82
2023-04-15T06:50:29.219Z,20.95
2023-04-15T06:52:57.378Z,21.66
2023-04-15T06:55:25.295Z,21.06
2023-04-15T06:57:53.251Z,21.56
2023-04-15T07:00:21.401Z,21.70
2023-04-15T07:02:49.443Z,22.04
2023-04-15T07:05:18.102Z,21.85
2023-04-15T07:07:46.117Z,22.71
2023-04-15T07:10:15.889Z,22.72
2023-04-15T07:12:43.937Z,22.86
2023-04-15T07:15:12.315Z,22.52
2023-04-15T07:17:43.140Z,22.34
2023-04-15T07:20:11.679Z,23.31
2023-04-15T07:22:40.167Z,24.19
2023-04-15T07:25:08.951Z,24.64
2023-04-15T07:27:36.884Z,24.95
2023-04-15T07:30:05.539Z,24.66
2023-04-15T07:32:33.598Z,24.75
2023-04-15T07:35:02.197Z,24.87
2023-04-15T07:37:30.235Z,24.75
2023-04-15T07:39:58.272Z,25.86
2023-04-15T07:42:26.368Z,26.30
2023-04-15T07:44:54.441Z,26.85
2023-04-15T07:47:22.501Z,28.21
2023-04-15T07:49:51.523Z,28.13
2023-04-15T07:52:19.557Z,28.65
2023-04-15T07:54:47.587Z,29.86
2023-04-15T07:57:16.910Z,30.71
2023-04-15T07:59:44.994Z,30.95
2023-04-15T08:02:13.092Z,31.90
2023-04-15T08:04:41.299Z,33.21
2023-04-15T08:07:09.325Z,33.59
2023-04-15T08:09:37.496Z,34.05
2023-04-15T08:12:05.709Z,34.88
2023-04-15T08:14:33.736Z,35.18
2023-04-15T08:17:01.725Z,35.67
2023-04-15T08:19:30.299Z,35.94
2023-04-15T08:21:59.121Z,35.58
2023-04-15T08:24:27.294Z,35.94
2023-04-15T08:26:55.328Z,36.15
2023-04-15T08:29:23.730Z,36.46
2023-04-15T08:31:51.910Z,36.88
2023-04-15T08:34:19.966Z,37.05
2023-04-15T08:36:48.011Z,36.73
2023-04-15T08:39:15.992Z,36.68
2023-04-15T08:41:52.213Z,37.73
2023-04-15T08:44:21.976Z,37.23
2023-04-15T08:46:51.682Z,38.10
2023-04-15T08:49:22.494Z,38.51
2023-04-15T08:51:50.430Z,37.88
2023-04-15T08:54:18.999Z,39.18
2023-04-15T08:56:47.717Z,38.15
2023-04-15T08:59:16.628Z,37.00
2023-04-15T09:01:45.377Z,34.96
2023-04-15T09:04:14.417Z,32.10
2023-04-15T09:06:42.472Z,33.45
2023-04-15T09:09:10.554Z,34.77
2023-04-15T09:11:38.675Z,36.06
2023-04-15T09:14:06.856Z,35.09
2023-04-15T09:17:01.332Z,34.10
2023-04-15T09:19:30.388Z,34.09
2023-04-15T09:21:59.619Z,34.19
2023-04-15T09:24:37.594Z,34.13
2023-04-15T09:27:06.114Z,34.37
2023-04-15T09:29:34.441Z,35.92
2023-04-15T09:32:15.952Z,37.23
2023-04-15T09:34:44.506Z,36.53
2023-04-15T09:37:24.605Z,35.51
2023-04-15T09:39:59.434Z,36.41
2023-04-15T09:42:28.235Z,38.41
2023-04-15T09:44:56.607Z,38.20
2023-04-15T09:47:32.165Z,38.52
2023-04-15T09:50:01.298Z,38.26
2023-04-15T09:52:30.418Z,37.86
2023-04-15T09:54:59.816Z,37.60
2023-04-15T09:57:38.729Z,36.69
2023-04-15T10:00:08.978Z,36.84
2023-04-15T10:02:39.953Z,37.20
2023-04-15T10:05:11.967Z,36.45
2023-04-15T10:07:41.248Z,37.38
2023-04-15T10:10:10.815Z,36.59
2023-04-15T10:12:41.566Z,36.70
2023-04-15T10:15:16.912Z,37.06
2023-04-15T10:17:45.709Z,37.77
2023-04-15T10:20:15.028Z,38.96
2023-04-15T10:22:45.440Z,40.06
2023-04-15T10:25:15.746Z,40.64
2023-04-15T10:27:43.780Z,40.03
2023-04-15T10:30:12.540Z,40.61
2023-04-15T10:32:41.473Z,42.00
2023-04-15T10:35:09.975Z,39.76
2023-04-15T10:37:39.268Z,38.34
2023-04-15T10:40:32.676Z,37.87
2023-04-15T10:43:02.538Z,37.38
2023-04-15T10:45:36.787Z,36.36
2023-04-15T10:48:08.205Z,36.25
2023-04-15T10:50:37.679Z,34.47
2023-04-15T10:53:06.020Z,34.86
2023-04-15T10:55:34.663Z,34.97
2023-04-15T10:58:03.030Z,33.34
2023-04-15T11:00:32.893Z,32.87
2023-04-15T11:03:07.801Z,31.84
2023-04-15T11:05:42.106Z,31.30
2023-04-15T11:08:11.176Z,30.88
2023-04-15T11:10:39.055Z,30.87
2023-04-15T11:13:09.930Z,30.43
2023-04-15T11:15:47.858Z,29.84
2023-04-15T11:18:28.101Z,28.46
2023-04-15T11:20:59.235Z,27.93
2023-04-15T11:23:28.761Z,26.85
2023-04-15T11:25:58.079Z,26.31
2023-04-15T11:28:31.178Z,25.81
2023-04-15T11:31:06.307Z,25.61
2023-04-15T11:33:34.497Z,26.54
2023-04-15T11:36:04.218Z,27.02
2023-04-15T11:38:34.014Z,27.81
2023-04-15T11:41:02.046Z,28.83
2023-04-15T11:43:32.354Z,30.08
2023-04-15T11:46:02.128Z,30.72
2023-04-15T11:48:36.128Z,31.69
2023-04-15T11:51:06.486Z,32.52
2023-04-15T11:53:39.516Z,33.68
2023-04-15T11:56:07.029Z,34.68
2023-04-15T11:58:37.578Z,34.96
2023-04-15T12:01:05.323Z,33.53
2023-04-15T12:03:43.452Z,31.05
2023-04-15T12:06:21.690Z,29.29
2023-04-15T12:08:51.169Z,29.50
2023-04-15T12:11:17.947Z,29.55
2023-04-15T12:13:49.258Z,29.50
2023-04-15T12:16:19.945Z,30.13
2023-04-15T12:18:48.225Z,29.82
2023-04-15T12:21:15.357Z,29.52
2023-04-15T12:23:53.625Z,29.68
2023-04-15T12:26:51.201Z,29.71
2023-04-15T12:29:18.339Z,28.77
2023-04-15T12:31:52.152Z,28.29
2023-04-15T12:34:30.924Z,28.06
2023-04-15T12:36:59.350Z,28.07
2023-04-15T12:39:30.484Z,28.34
2023-04-15T12:41:59.380Z,28.05
2023-04-15T12:44:26.166Z,27.97
2023-04-15T12:46:53.543Z,27.71
2023-04-15T12:49:24.380Z,27.59
2023-04-15T12:51:53.179Z,27.60
2023-04-15T12:54:20.434Z,27.26
2023-04-15T12:56:48.375Z,27.07
2023-04-15T12:59:16.513Z,27.38
2023-04-15T13:01:43.570Z,27.27
2023-04-15T13:04:10.612Z,26.85
2023-04-15T13:06:38.413Z,26.55
2023-04-15T13:09:06.123Z,26.13
2023-04-15T13:11:33.939Z,25.88
2023-04-15T13:14:01.950Z,25.61
2023-04-15T13:16:29.447Z,25.55
2023-04-15T13:18:56.297Z,25.22
2023-04-15T13:21:23.054Z,25.17
2023-04-15T13:23:52.592Z,25.19
2023-04-15T13:26:19.531Z,25.28
2023-04-15T13:28:46.625Z,25.16
2023-04-15T13:31:13.617Z,25.24
2023-04-15T13:33:40.478Z,25.23
2023-04-15T13:36:08.279Z,25.06
2023-04-15T13:38:35.160Z,25.12
2023-04-15T13:41:01.947Z,25.10
2023-04-15T13:43:28.802Z,25.03
2023-04-15T13:45:55.675Z,24.63
2023-04-15T13:48:22.360Z,24.38
2023-04-15T13:50:49.019Z,24.19
2023-04-15T13:53:15.843Z,24.18
2023-04-15T13:55:43.020Z,24.07
2023-04-15T13:58:10.260Z,23.99
2023-04-15T14:00:37.240Z,23.94
2023-04-15T14:03:04.537Z,24.36
2023-04-15T14:05:32.477Z,24.40
2023-04-15T14:08:00.066Z,24.33
2023-04-15T14:10:26.774Z,23.97
2023-04-15T14:12:53.518Z,23.80
2023-04-15T14:15:21.041Z,23.71
2023-04-15T14:17:47.763Z,24.09
2023-04-15T14:20:16.827Z,24.04
2023-04-15T14:22:43.989Z,23.82
2023-04-15T14:25:15.129Z,23.94
2023-04-15T14:27:46.907Z,23.63
2023-04-15T14:30:13.704Z,23.98
2023-04-15T14:32:40.741Z,23.88
2023-04-15T14:35:08.861Z,23.58
2023-04-15T14:37:35.999Z,23.47
2023-04-15T14:40:02.957Z,23.46
2023-04-15T14:42:29.716Z,23.32
2023-04-15T14:44:56.415Z,23.10
2023-04-15T14:47:23.413Z,23.37
2023-04-15T14:49:50.739Z,23.40
2023-04-15T14:52:17.467Z,23.75
2023-04-15T14:54:44.167Z,23.79
2023-04-15T14:57:11.103Z,23.95
2023-04-15T14:59:37.844Z,24.16
2023-04-15T15:02:04.723Z,24.10
2023-04-15T15:04:33.456Z,23.85
2023-04-15T15:07:00.276Z,23.45
2023-04-15T15:09:27.458Z,23.52
2023-04-15T15:11:54.156Z,23.70
2023-04-15T15:16:47.819Z,23.50
2023-04-15T15:19:14.558Z,23.46
2023-04-15T15:21:41.228Z,23.36
2023-04-15T15:24:07.930Z,23.13
2023-04-15T15:26:34.791Z,22.71
2023-04-15T15:29:02.173Z,22.89
2023-04-15T15:31:28.976Z,22.63
2023-04-15T15:33:55.699Z,22.85
2023-04-15T15:36:22.397Z,22.62
2023-04-15T15:38:49.084Z,22.89
2023-04-15T15:41:15.962Z,22.81
2023-04-15T15:43:42.715Z,22.87
2023-04-15T15:46:09.647Z,22.83
2023-04-15T15:48:36.784Z,23.01
2023-04-15T15:51:04.218Z,22.84
2023-04-15T15:53:31.111Z,22.67
2023-04-15T15:55:57.903Z,22.29
2023-04-15T15:58:24.601Z,22.41
2023-04-15T16:00:51.378Z,22.42
2023-04-15T16:03:18.506Z,22.15
2023-04-15T16:05:46.997Z,22.27
2023-04-15T16:08:13.793Z,21.97
2023-04-15T16:10:40.827Z,21.98
2023-04-15T16:13:07.849Z,21.92
2023-04-15T16:15:34.586Z,21.87
2023-04-15T16:18:01.481Z,21.66
2023-04-15T16:20:28.851Z,21.71
2023-04-15T16:22:58.922Z,21.98
2023-04-15T16:25:25.862Z,21.79
2023-04-15T16:28:01.463Z,21.55
2023-04-15T16:30:40.108Z,21.55
2023-04-15T16:33:08.196Z,21.42
2023-04-15T16:35:34.985Z,21.38
2023-04-15T16:38:01.950Z,21.29
2023-04-15T16:40:28.700Z,21.03
2023-04-15T16:42:55.720Z,20.77
2023-04-15T16:45:22.507Z,20.56
2023-04-15T16:47:49.190Z,20.46
2023-04-15T16:50:16.083Z,20.59
2023-04-15T16:52:42.963Z,20.44
2023-04-15T16:55:09.670Z,20.24
2023-04-15T16:58:00.766Z,19.99
2023-04-15T17:00:23.074Z,19.87
2023-04-15T17:02:49.991Z,20.03
2023-04-15T17:05:16.943Z,19.90
2023-04-15T17:07:43.646Z,19.99
2023-04-15T17:10:10.592Z,20.04
2023-04-15T17:12:37.409Z,20.11
2023-04-15T17:15:04.450Z,19.93
2023-04-15T17:17:31.488Z,19.41
2023-04-15T17:19:58.218Z,19.43
2023-04-15T17:22:25.250Z,19.56
2023-04-15T17:24:52.063Z,19.66
2023-04-15T17:27:21.192Z,19.75
2023-04-15T17:29:48.044Z,19.67
2023-04-15T17:32:35.129Z,19.53
2023-04-15T17:35:23.406Z,19.53
2023-04-15T17:38:10.281Z,19.35
2023-04-15T17:40:56.910Z,19.18
2023-04-15T17:43:43.591Z,18.99
2023-04-15T17:46:30.766Z,19.07
2023-04-15T17:49:17.448Z,19.07
2023-04-15T17:52:04.582Z,18.69
2023-04-15T17:54:51.229Z,18.54
2023-04-15T17:57:37.913Z,18.67
2023-04-15T18:00:24.728Z,18.69
2023-04-15T18:03:11.535Z,18.58
2023-04-15T18:05:58.366Z,18.60
2023-04-15T18:08:45.077Z,18.25
2023-04-15T18:11:33.232Z,18.14
2023-04-15T18:14:32.993Z,18.05
2023-04-15T18:17:20.816Z,18.07
2023-04-15T18:20:07.868Z,17.92
2023-04-15T18:22:34.711Z,17.69
2023-04-15T18:25:04.192Z,17.88
2023-04-15T18:27:35.455Z,17.99
2023-04-15T18:30:02.197Z,17.84
2023-04-15T18:32:31.918Z,18.05
2023-04-15T18:34:58.768Z,17.87
2023-04-15T18:37:26.924Z,17.87
2023-04-15T18:39:54.160Z,17.83
2023-04-15T18:42:21.619Z,17.85
2023-04-15T18:44:48.974Z,17.84
2023-04-15T18:47:16.152Z,17.82
2023-04-15T18:49:42.878Z,17.99
2023-04-15T18:52:10.264Z,18.15
2023-04-15T18:54:37.777Z,18.01
2023-04-15T18:57:04.629Z,18.04
2023-04-15T18:59:31.627Z,18.02
2023-04-15T19:02:00.025Z,17.76
2023-04-15T19:04:29.234Z,17.76
2023-04-15T19:06:56.387Z,17.78
2023-04-15T19:09:23.119Z,17.66
2023-04-15T19:11:49.819Z,17.66
2023-04-15T19:14:17.744Z,17.62
2023-04-15T19:16:44.550Z,17.60
2023-04-15T19:19:14.399Z,17.57
2023-04-15T19:21:41.547Z,17.41
2023-04-15T19:24:08.273Z,17.32
2023-04-15T19:26:36.667Z,17.45
2023-04-15T19:29:03.745Z,17.55
2023-04-15T19:31:30.783Z,17.47
2023-04-15T19:33:57.467Z,17.58
2023-04-15T19:36:24.205Z,17.33
2023-04-15T19:38:51.034Z,17.25
2023-04-15T19:41:17.740Z,17.25
2023-04-15T19:43:44.400Z,17.18
2023-04-15T19:46:13.201Z,17.05
2023-04-15T19:48:40.128Z,17.04
2023-04-15T19:51:06.921Z,17.08
2023-04-15T19:53:33.644Z,17.23
2023-04-15T19:56:00.341Z,16.98
2023-04-15T19:58:27.081Z,17.00
2023-04-15T20:00:53.992Z,16.78
2023-04-15T20:03:20.938Z,16.86
2023-04-15T20:05:47.831Z,17.01
2023-04-15T20:08:14.689Z,16.99
2023-04-15T20:10:41.604Z,16.97
2023-04-15T20:13:08.485Z,16.87
2023-04-15T20:15:35.464Z,16.92
2023-04-15T20:18:02.373Z,16.67
2023-04-15T20:20:29.317Z,16.61
2023-04-15T20:22:56.197Z,16.62
2023-04-15T20:25:23.008Z,16.58
2023-04-15T20:27:49.790Z,16.54
2023-04-15T20:30:16.484Z,16.53
2023-04-15T20:32:43.315Z,16.51
2023-04-15T20:35:10.115Z,16.33
2023-04-15T20:37:37.628Z,16.23
2023-04-15T20:40:04.675Z,16.22
2023-04-15T20:42:34.523Z,16.37
2023-04-15T20:45:02.148Z,16.24
2023-04-15T20:47:29.465Z,16.17
2023-04-15T20:49:56.276Z,16.26
2023-04-15T20:52:23.027Z,16.39
2023-04-15T20:54:50.389Z,16.48
2023-04-15T20:57:17.427Z,16.33
2023-04-15T20:59:44.142Z,16.22
2023-04-15T21:02:11.086Z,16.26
2023-04-15T21:04:40.762Z,16.40
2023-04-15T21:07:07.468Z,16.21
2023-04-15T21:09:34.217Z,16.35
2023-04-15T21:12:02.142Z,16.32
2023-04-15T21:14:29.588Z,16.43
2023-04-15T21:16:58.201Z,16.41
2023-04-15T21:19:25.049Z,16.29
2023-04-15T21:21:52.274Z,16.41
2023-04-15T21:24:18.964Z,16.38
2023-04-15T21:26:45.876Z,16.48
2023-04-15T21:29:12.815Z,16.42
2023-04-15T21:31:40.185Z,16.51
2023-04-15T21:34:07.054Z,16.38
2023-04-15T21:36:34.230Z,16.41
2023-04-15T21:39:01.084Z,16.16
2023-04-15T21:41:28.021Z,16.22
2023-04-15T21:43:54.806Z,16.18
2023-04-15T21:46:25.344Z,16.23
2023-04-15T21:48:53.366Z,16.28
2023-04-15T21:51:20.351Z,16.23
2023-04-15T21:53:47.166Z,16.24
2023-04-15T21:56:14.074Z,16.24
2023-04-15T21:58:40.820Z,16.36
2023-04-15T22:01:07.563Z,16.35
2023-04-15T22:03:35.242Z,16.06
2023-04-15T22:06:05.248Z,16.03
2023-04-15T22:08:41.274Z,16.00
2023-04-15T22:11:23.058Z,16.04
2023-04-15T22:13:49.865Z,15.75
2023-04-15T22:16:16.561Z,15.94
2023-04-15T22:18:43.376Z,16.00
2023-04-15T22:21:10.163Z,15.91
2023-04-15T22:23:36.902Z,16.00
2023-04-15T22:26:04.836Z,16.09
2023-04-15T22:28:31.579Z,15.84
2023-04-15T22:30:58.968Z,15.90
2023-04-15T22:33:25.781Z,15.94
2023-04-15T22:35:52.456Z,15.97
2023-04-15T22:38:19.152Z,15.99
2023-04-15T22:40:46.433Z,16.00
2023-04-15T22:43:13.165Z,15.93
2023-04-15T22:45:40.388Z,15.94
2023-04-15T22:48:07.092Z,15.87
2023-04-15T22:50:37.094Z,15.91
2023-04-15T22:53:03.871Z,15.87
2023-04-15T22:55:30.873Z,15.71
2023-04-15T22:57:57.636Z,15.86
2023-04-15T23:00:24.384Z,15.67
2023-04-15T23:02:51.173Z,15.56
2023-04-15T23:05:18.132Z,15.48
2023-04-15T23:07:44.820Z,15.46
2023-04-15T23:10:11.594Z,15.57
2023-04-15T23:12:38.351Z,15.44
2023-04-15T23:15:05.487Z,15.55
2023-04-15T23:17:32.309Z,15.68
2023-04-15T23:19:59.072Z,15.63
2023-04-15T23:22:25.882Z,15.72
2023-04-15T23:24:52.555Z,15.43
2023-04-15T23:27:19.245Z,15.44
2023-04-15T23:29:46.070Z,15.46
2023-04-15T23:32:12.772Z,15.57
2023-04-15T23:34:39.466Z,15.62
2023-04-15T23:37:06.269Z,15.65
2023-04-15T23:39:33.144Z,15.66
2023-04-15T23:41:59.963Z,15.69
2023-04-15T23:44:27.021Z,15.67
2023-04-15T23:46:53.718Z,15.70
2023-04-15T23:49:20.720Z,15.77
2023-04-15T23:51:47.478Z,15.79
2023-04-15T23:54:14.766Z,15.82
2023-04-15T23:56:41.457Z,15.77
2023-04-15T23:59:08.551Z,15.74
